Airfield :
LOGIN :

Register | Disclaimer

   EN    FR    IT 

 










Legend :    VFR   Marginal VFR   IFR   Intensive IFR   Very Intensive IFR
Visi :
Ceiling :
>= 8 km
>= 3000ft
5 to 8 km
1000 to 3000 ft
1500m to 5 km
500 to 1000 ft
800 to 1500m
200 to 500 ft
< 800m
< 200 ft
Symbols :   Thunderstorms  Fog  Heavy snow  Heavy precipitations  Wind > 20 kt
SIGMETs :     Misc.  Thunderstorms  Icing  Turbulence  Mountain Waves  Volcanic Ashes






- Airport Elevation : 466 ft


LHPA - Pápa

CURRENT METAR :
  • 162315Z 00000KT 0300 R34/0400V0550U FG SCT083 07/07 Q1015 NOSIG RMK RED

EXPIRED METARs :
  • 162252Z 00000KT 0400 R34/0600V0900D FG SCT083 08/08 Q1015 RMK RED
  • 162215Z 33004KT 6000 MIBCFG BKN083 09/09 Q1015 NOSIG RMK WHT
  • 162145Z 35002KT 6000 NSC 10/10 Q1015 RERA BECMG 5000 BR NSC RMK WHT
  • 162115Z 36004KT 6000 RA BKN033 OVC083 10/10 Q1015 BECMG 8000 NSW RMK WHT
  • 162045Z 05004KT 8000 -RA BKN047 BKN083 10/10 Q1015 BECMG 8000 NSW RMK BLU

TAF TAF LHPA
Valid from the 17 at 00:00 until the 18 at 00:00 UTC


162315Z 1700/1724 13008KT 1500 BR NSC
TEMPO 1700/1709 VRB03KT 0600 FG BKN005
PROB40
TEMPO 1700/1708 0150 FG OVC002
BECMG 1707/1710 14012KT 8000 NSW NSC
BECMG 1712/1715 13016G26KT CAVOK



MET'MAP, your aeronautical weather chart ! - Copyright ORBIFLY December 2007 - Disclaimer

ORBIFLY MET'MAP TEAM :

Programming & Development : Alexandra Zaïnal
Concept & Development : Baudouin d'Aumeries
Co-Development & Prog : Marc-Olivier Méhu
Technical & hardware support : Manuel Goepfert

Contact : metmap@orbifly.com




SOURCES & CREDITS :

   NOAA